Weather at El Nuzha Airport [CLOSED]

Public forecast

Using degrees Celsius for public forecast. Weather courtesy of forecast.io.

Current aviation weather report (METAR) for El Nuzha Airport

Retrieved 2022/08/12 18:00 UTC (41 minutes ago):

HEAX 121800Z 32009KT CAVOK 27/21 Q1009 NOSIG

Aviation forecast (TAF) for El Nuzha Airport

Retrieved 2022/08/12 18:56 UTC (0 seconds ago):

TAF HEAX 121700Z 1218/1324 30008KT CAVOK